This is the latest recevied weather packets stored in our database for station/object DL8TF-13. If no packets are shown the sender has not sent any weather packets the latest 10 day(s).
| Time | Temp. | Humidity | Pressure | Rain* | Wind** | Luminosity | Snow |
|---|---|---|---|---|---|---|---|
| 1777731821 | 37.78° C | 7% | 986 hPa | - | - | - | - |
| 1777731221 | 36.67° C | 8% | 986 hPa | - | - | - | - |
| 1777730621 | 41.11° C | 5% | 986 hPa | - | - | - | - |
| 1777730021 | 42.22° C | 6% | 986 hPa | - | - | - | - |
| 1777728821 | 39.44° C | 7% | 987 hPa | - | - | - | - |
| 1777728221 | 40.56° C | 7% | 987 hPa | - | - | - | - |
| 1777727621 | 40° C | 6% | 987 hPa | - | - | - | - |
| 1777726421 | 38.89° C | 6% | 987 hPa | - | - | - | - |
| 1777725221 | 38.33° C | 8% | 988 hPa | - | - | - | - |
| 1777724621 | 37.22° C | 10% | 988 hPa | - | - | - | - |
| 1777724021 | 36.67° C | 10% | 988 hPa | - | - | - | - |
| 1777723421 | 37.22° C | 9% | 988 hPa | - | - | - | - |
| 1777722220 | 34.44° C | 13% | 988 hPa | - | - | - | - |
| 1777721620 | 31.67° C | 15% | 988 hPa | - | - | - | - |
| 1777721020 | 28.33° C | 20% | 988 hPa | - | - | - | - |
| 1777720420 | 24.44° C | 24% | 988 hPa | - | - | - | - |
| 1777719820 | 23.33° C | 27% | 989 hPa | - | - | - | - |
| 1777719220 | 22.78° C | 28% | 989 hPa | - | - | - | - |
| 1777718620 | 22.78° C | 26% | 989 hPa | - | - | - | - |
| 1777718020 | 22.22° C | 28% | 989 hPa | - | - | - | - |
| 1777717420 | 21.67° C | 30% | 989 hPa | - | - | - | - |
| 1777716820 | 21.67° C | 35% | 989 hPa | - | - | - | - |
| 1777716220 | 20.56° C | 33% | 989 hPa | - | - | - | - |
| 1777715620 | 20° C | 33% | 989 hPa | - | - | - | - |
| 1777715020 | 20° C | 32% | 989 hPa | - | - | - | - |
* Rain since midnight (hover to see other rain measurements)
** Current wind speed in m/s (hover to see current wind gust speed)